Scottsburg, OR

8:07 PM PDT on May 29, 2017 (GMT -0700)
MCHRO3 | | Change Station

Elev 232 ft 43.67 °N, 123.94 °W | Updated 14 days ago

Overcast
Overcast
44.0 °F
Feels Like 41 °F
N
5.0
Wind Variable Wind from NNW
Gusts 10.0 mph

Today
High -- | Low -- °F
--% Chance of Precip.
Yesterday
High -- | Low -- °F
Precip. -- in
Pressure 30.05 in
Visibility 6.0 miles
Clouds Overcast 600 ft
Windchill 41 °F
Dew Point 43.0 °F
Humidity 96%
Rainfall in
Snow Depth Not available.
5:38 AM 8:48 PM
Waxing Crescent, 25% visible
METAR KOTH 300255Z 34011KT 6SM OVC006 12/12 A3005 RMK AO1 57007
Pressure 30.05 in
Visibility 6.0 miles
Clouds Overcast 600 ft
Windchill 41 °F
Dew Point 43.0 °F
Humidity 96%
Rainfall in
Snow Depth Not available.
5:38 AM 8:48 PM
Waxing Crescent, 25% visible
METAR KOTH 300255Z 34011KT 6SM OVC006 12/12 A3005 RMK AO1 57007

Get Severe Weather Alerts

Thanks for signing up!

Be on the lookout for a verification email in your inbox.

You'll start receiving the daily forecast at 6 AM.

×

10-Day Weather Forecast

Almanac

Astronomy

May. 29, 2017 Rise Set
Actual Time
Civil Twilight
Nautical Twilight
Astronomical Twilight
Moon
Length of Visible Light
Length of Day
Tomorrow will be .
, % of the Moon is Illuminated

Today's Extremes

State Highs State Lows

Community

WunderPhotos

Category 6

Welcome to Category 6. This is the collective home for Weather Underground's featured writeups by Dr. Jeff Masters (right), Bob Henson (left), Chris Burt, and other regular contributors.

Nearby

Air Quality

  Air Quality AQ Index Pollutant
Not available.

Snow Depth

Station Depth Elevation

Earthquake Activity

City Distance Mag. Time & Date
Minimum magnitude displayed is 2.5.

Coastal Water Temperatures

Place Temperature

Stations

Nearby Weather Stations

Station Location Temp. Windchill Dew Point Humidity Wind Precip. Elev Updated Type
                   

Watches & Warnings

There are currently no watches in effect.